Time;durP1;ratioP1;P1;durP2;ratioP2;P2;SDS_P1;SDS_P2;PMS_P1;PMS_P2;Temp;Humidity;BMP_temperature;BMP_pressure;BME280_temperature;BME280_humidity;BME280_pressure;Samples;Min_cycle;Max_cycle;Signal;HPM_P1;HPM_P2
2022/06/23 00:02:02;;;;;;;5.22;3.60;;;;;;;23.74;41.42;93626.44;5032337;28;20080;-75
2022/06/23 00:04:43;;;;;;;7.93;3.63;;;;;;;23.66;41.37;93619.50;5031770;28;20126;-75
2022/06/23 00:07:38;;;;;;;6.68;3.25;;;;;;;23.65;41.97;93623.41;5035051;28;20432;-75
2022/06/23 00:10:17;;;;;;;5.35;3.33;;;;;;;23.56;42.51;93618.41;5023193;28;20159;-75
2022/06/23 00:12:45;;;;;;;7.05;3.50;;;;;;;23.60;42.66;93617.63;5038205;28;20021;-75
2022/06/23 00:15:15;;;;;;;7.32;3.65;;;;;;;23.48;42.95;93619.63;5033719;28;20040;-75
2022/06/23 00:17:47;;;;;;;7.53;3.28;;;;;;;23.41;43.48;93621.63;5031891;28;20032;-75
2022/06/23 00:20:15;;;;;;;4.57;2.92;;;;;;;23.33;43.47;93617.41;5031848;28;20067;-75
2022/06/23 00:22:45;;;;;;;6.45;3.17;;;;;;;23.19;43.39;93601.22;5028782;28;20049;-75
2022/06/23 00:25:35;;;;;;;4.57;3.60;;;;;;;23.25;43.80;93624.84;5032447;28;20034;-75
2022/06/23 00:28:01;;;;;;;7.97;3.47;;;;;;;23.05;43.74;93594.72;5032476;28;20048;-75
2022/06/23 00:30:39;;;;;;;4.65;3.10;;;;;;;23.21;43.74;93615.94;5032500;28;20393;-75
2022/06/23 00:33:16;;;;;;;7.38;3.50;;;;;;;23.13;43.81;93612.50;5037980;28;20057;-75
2022/06/23 00:35:41;;;;;;;9.38;3.60;;;;;;;22.85;43.90;93558.41;5028828;28;20031;-75
2022/06/23 00:38:19;;;;;;;5.43;3.70;;;;;;;23.11;43.92;93592.38;5033872;28;20033;-75
2022/06/23 00:40:45;;;;;;;6.95;3.92;;;;;;;23.02;43.86;93579.25;5031417;28;20235;-75
2022/06/23 00:43:11;;;;;;;8.32;3.65;;;;;;;22.80;44.19;93545.28;5031577;28;20041;-75
2022/06/23 00:45:43;;;;;;;5.28;3.65;;;;;;;22.81;44.31;93543.34;5031206;28;20033;-75
2022/06/23 00:48:42;;;;;;;7.95;3.85;;;;;;;22.89;44.39;93580.88;5030109;28;20114;-75
2022/06/23 00:51:16;;;;;;;7.55;3.83;;;;;;;22.78;44.60;93604.53;5030641;28;20038;-75
2022/06/23 00:53:53;;;;;;;6.53;3.78;;;;;;;22.79;44.78;93606.06;5028517;28;20416;-75
2022/06/23 00:56:54;;;;;;;5.32;3.80;;;;;;;22.79;45.12;93606.06;5030233;28;20076;-75
2022/06/23 00:59:26;;;;;;;6.57;3.55;;;;;;;22.64;44.56;93593.75;4981208;28;20052;-74
2022/06/23 01:01:55;;;;;;;6.30;4.22;;;;;;;22.74;44.43;93614.63;5022306;28;20068;-75
2022/06/23 01:04:35;;;;;;;7.70;4.40;;;;;;;22.74;44.88;93601.84;5023265;28;20062;-75
2022/06/23 01:07:37;;;;;;;9.38;4.13;;;;;;;22.62;44.94;93593.38;5009826;28;20064;-75
2022/06/23 01:10:28;;;;;;;7.40;4.10;;;;;;;22.66;45.19;93600.34;5009519;28;20044;-75
2022/06/23 01:13:34;;;;;;;7.03;4.78;;;;;;;22.62;45.25;93593.38;5010005;28;20040;-75
2022/06/23 01:16:15;;;;;;;6.28;4.25;;;;;;;22.53;45.56;93579.50;5010775;28;20068;-74
2022/06/23 01:18:55;;;;;;;5.00;3.95;;;;;;;22.57;45.43;93589.16;5010269;28;20648;-75
2022/06/23 01:21:32;;;;;;;7.68;3.90;;;;;;;22.47;46.04;93578.34;5009937;28;20048;-75
2022/06/23 01:24:03;;;;;;;8.38;4.35;;;;;;;22.46;46.01;93579.50;5010804;28;20544;-74
2022/06/23 01:26:55;;;;;;;7.55;4.03;;;;;;;22.44;46.06;93576.44;5010304;28;20180;-75
2022/06/23 01:29:27;;;;;;;8.85;4.20;;;;;;;22.37;46.03;93571.81;5006348;28;20048;-75
2022/06/23 01:32:06;;;;;;;11.20;4.45;;;;;;;22.07;45.94;93528.94;5010395;28;20038;-75
2022/06/23 01:34:46;;;;;;;10.48;4.63;;;;;;;22.30;46.29;93567.19;5006777;28;20065;-75
2022/06/23 01:37:25;;;;;;;5.25;3.72;;;;;;;22.23;46.45;93567.22;5012708;28;20051;-75
2022/06/23 01:40:16;;;;;;;6.20;4.70;;;;;;;22.19;46.56;93555.59;5009757;28;20034;-75
2022/06/23 01:43:25;;;;;;;6.63;4.45;;;;;;;22.21;46.76;93558.72;5012386;28;20033;-75
2022/06/23 01:45:53;;;;;;;8.63;4.57;;;;;;;22.16;46.80;93550.19;4955205;28;20084;-75
2022/06/23 01:51:37;;;;;;;8.35;4.40;;;;;;;22.08;46.78;93545.97;4995891;28;20396;-74
2022/06/23 01:54:08;;;;;;;7.32;4.40;;;;;;;21.99;47.08;93532.84;5033469;28;20389;-76
2022/06/23 01:56:36;;;;;;;6.55;4.05;;;;;;;21.94;47.28;93541.38;5036528;28;20500;-75
2022/06/23 01:59:19;;;;;;;7.30;4.65;;;;;;;21.99;47.02;93540.97;5032025;28;20046;-75
2022/06/23 02:02:22;;;;;;;9.00;4.20;;;;;;;22.00;47.11;93541.75;5033105;28;20032;-75
2022/06/23 02:04:47;;;;;;;5.68;4.03;;;;;;;21.96;47.14;93541.75;5032269;28;20048;-75
2022/06/23 02:07:21;;;;;;;8.50;3.70;;;;;;;21.87;47.25;93534.03;5032522;28;20163;-75
2022/06/23 02:09:53;;;;;;;8.77;4.25;;;;;;;21.81;47.14;93526.69;5031408;28;20116;-75
2022/06/23 02:12:33;;;;;;;5.88;4.68;;;;;;;21.75;47.11;93533.69;5030835;28;20104;-75
2022/06/23 02:15:05;;;;;;;7.28;4.30;;;;;;;21.77;47.18;93539.47;5031224;28;20059;-75
2022/06/23 02:17:53;;;;;;;8.50;4.15;;;;;;;21.76;47.26;93535.22;5029386;28;20649;-74
2022/06/23 02:20:52;;;;;;;9.93;4.38;;;;;;;21.77;47.12;93536.75;5030486;28;20521;-75
2022/06/23 02:23:36;;;;;;;9.45;4.10;;;;;;;21.78;47.00;93536.38;5031450;28;20025;-75
2022/06/23 02:26:12;;;;;;;11.93;5.07;;;;;;;21.76;46.67;93533.28;5029261;28;20825;-75
2022/06/23 02:28:43;;;;;;;8.55;3.97;;;;;;;21.76;46.98;93532.50;5029127;28;20116;-75
2022/06/23 02:31:33;;;;;;;9.00;3.90;;;;;;;21.70;46.81;93515.13;5030659;28;20509;-75
2022/06/23 02:34:19;;;;;;;7.93;4.72;;;;;;;21.72;47.19;93529.03;5030351;28;20043;-75
2022/06/23 02:36:56;;;;;;;8.00;4.00;;;;;;;21.70;47.18;93539.50;5028399;28;20057;-75
2022/06/23 02:39:49;;;;;;;8.88;4.63;;;;;;;21.57;47.13;93514.75;5030448;28;20083;-75
2022/06/23 02:42:28;;;;;;;9.27;5.00;;;;;;;21.52;47.45;93522.47;5029902;28;20143;-74
2022/06/23 02:45:08;;;;;;;6.32;4.15;;;;;;;21.54;47.45;93528.28;5031578;28;20030;-75
2022/06/23 02:47:33;;;;;;;7.55;4.72;;;;;;;21.67;47.42;93546.44;5031736;28;20112;-76
2022/06/23 02:50:13;;;;;;;8.50;5.05;;;;;;;21.71;47.17;93546.44;5030679;28;20116;-75
2022/06/23 02:53:09;;;;;;;9.43;4.43;;;;;;;21.63;47.74;93539.50;5028421;28;20033;-74
2022/06/23 02:55:40;;;;;;;5.65;4.53;;;;;;;21.65;47.60;93542.59;5033519;28;20580;-75
2022/06/23 02:58:26;;;;;;;16.40;4.90;;;;;;;21.63;47.53;93551.09;5037593;28;20665;-75
2022/06/23 03:00:54;;;;;;;8.30;4.43;;;;;;;21.64;47.66;93547.22;5029944;28;20060;-75
2022/06/23 03:03:27;;;;;;;4.72;3.83;;;;;;;21.51;47.82;93531.78;5031838;28;20025;-75
2022/06/23 03:06:01;;;;;;;8.00;3.95;;;;;;;21.66;47.71;93560.34;5034304;28;20044;-75
2022/06/23 03:08:59;;;;;;;7.93;4.88;;;;;;;21.62;47.82;93554.19;5033697;28;20571;-75
2022/06/23 03:11:52;;;;;;;5.90;4.22;;;;;;;21.61;48.23;93555.38;5031152;28;20049;-75
2022/06/23 03:14:42;;;;;;;8.95;4.88;;;;;;;21.55;48.36;93562.31;5029885;28;20520;-75
2022/06/23 03:17:29;;;;;;;7.22;4.80;;;;;;;21.02;49.38;93573.88;5032133;28;20037;-74
2022/06/23 03:20:06;;;;;;;9.85;5.25;;;;;;;21.27;48.90;93568.47;5022517;28;20061;-75
2022/06/23 03:22:41;;;;;;;9.05;4.88;;;;;;;21.02;49.04;93517.13;5016097;28;20029;-75
2022/06/23 03:25:18;;;;;;;8.10;4.10;;;;;;;21.30;49.08;93560.38;5017374;28;20357;-74
2022/06/23 03:27:52;;;;;;;9.40;4.80;;;;;;;21.29;49.22;93561.53;5029443;28;20144;-75
2022/06/23 03:30:30;;;;;;;7.47;4.07;;;;;;;21.32;49.30;93547.22;5021536;28;20021;-75
2022/06/23 03:33:06;;;;;;;7.20;4.97;;;;;;;21.30;49.59;93537.97;5015993;28;20056;-75
2022/06/23 03:35:48;;;;;;;10.23;4.55;;;;;;;21.34;49.54;93536.78;5012150;28;20037;-75
2022/06/23 03:41:36;;;;;;;7.43;5.45;;;;;;;21.20;50.15;93523.28;5012653;28;20590;-75
2022/06/23 03:44:27;;;;;;;8.98;4.63;;;;;;;21.28;50.13;93530.22;5014352;28;20517;-75
2022/06/23 03:47:22;;;;;;;7.15;6.03;;;;;;;21.06;50.18;93485.44;5014581;28;20042;-75
2022/06/23 03:49:54;;;;;;;9.05;5.05;;;;;;;21.29;49.81;93512.84;4963939;28;20407;-75
2022/06/23 03:52:48;;;;;;;6.28;4.68;;;;;;;21.48;49.94;93532.53;5012691;28;20097;-75
2022/06/23 03:55:21;;;;;;;7.97;6.13;;;;;;;21.49;49.90;93539.50;4995373;28;20038;-75
2022/06/23 03:57:55;;;;;;;7.28;5.20;;;;;;;21.55;49.87;93546.88;5012737;28;20026;-75
2022/06/23 04:00:26;;;;;;;10.30;5.68;;;;;;;21.54;50.00;93541.81;5013440;28;20036;-75
2022/06/23 04:03:30;;;;;;;7.15;4.88;;;;;;;21.55;50.15;93541.44;5012822;28;20042;-74
2022/06/23 04:05:55;;;;;;;11.88;5.68;;;;;;;21.62;50.06;93537.94;5012435;28;20413;-75
2022/06/23 04:08:27;;;;;;;12.07;6.50;;;;;;;21.71;49.96;93549.13;5028888;28;20026;-75
2022/06/23 04:10:58;;;;;;;8.90;5.88;;;;;;;21.42;50.30;93505.88;5033769;28;20638;-75
2022/06/23 04:13:33;;;;;;;11.57;6.97;;;;;;;21.71;49.25;93524.78;5034662;28;20029;-75
2022/06/23 04:16:10;;;;;;;12.38;6.22;;;;;;;21.91;49.33;93552.97;5049273;28;20033;-74
2022/06/23 04:18:46;;;;;;;13.07;7.00;;;;;;;21.85;48.53;93532.91;5032957;28;20382;-75
2022/06/23 04:21:27;;;;;;;8.60;6.25;;;;;;;21.84;48.81;93539.47;5033368;28;20049;-75
2022/06/23 04:23:56;;;;;;;18.45;7.68;;;;;;;21.78;48.85;93536.38;5032226;28;20025;-75
2022/06/23 04:26:28;;;;;;;12.85;6.63;;;;;;;21.93;49.43;93539.81;5031581;28;20651;-75
2022/06/23 04:28:58;;;;;;;11.05;6.18;;;;;;;22.04;48.98;93570.34;5033820;28;20052;-74
2022/06/23 04:31:30;;;;;;;8.55;5.57;;;;;;;21.93;48.96;93550.66;5032892;28;20034;-75
2022/06/23 04:33:57;;;;;;;13.43;6.13;;;;;;;22.02;49.19;93544.81;5031561;28;20038;-75
2022/06/23 04:36:34;;;;;;;7.60;6.00;;;;;;;22.01;48.73;93533.22;5032075;28;20021;-74
2022/06/23 04:39:17;;;;;;;13.10;6.03;;;;;;;22.24;49.35;93536.25;5032817;28;20101;-74
2022/06/23 04:41:48;;;;;;;7.50;5.88;;;;;;;22.19;49.17;93533.91;5033656;28;20354;-74
2022/06/23 04:44:24;;;;;;;10.88;6.03;;;;;;;22.10;49.18;93538.97;5033503;28;20040;-75
2022/06/23 04:46:58;;;;;;;12.65;6.40;;;;;;;22.07;49.51;93539.78;5032298;28;20029;-73
2022/06/23 04:49:30;;;;;;;8.30;6.32;;;;;;;22.30;49.73;93542.03;5033756;28;20027;-74
2022/06/23 04:52:00;;;;;;;12.13;7.68;;;;;;;22.38;48.01;93542.78;5030930;28;20132;-74
2022/06/23 04:54:35;;;;;;;8.63;6.30;;;;;;;22.32;47.00;93525.41;5033431;28;20756;-75
2022/06/23 04:57:23;;;;;;;12.30;6.15;;;;;;;22.35;47.48;93551.69;5029541;28;20591;-75
2022/06/23 04:59:51;;;;;;;10.88;6.20;;;;;;;22.54;47.49;93543.06;5031666;28;20037;-75
2022/06/23 05:02:17;;;;;;;11.02;6.70;;;;;;;22.52;48.14;93542.72;5032524;28;20033;-75
2022/06/23 05:04:45;;;;;;;11.20;7.43;;;;;;;22.60;47.90;93533.38;5032095;28;20561;-75
2022/06/23 05:07:29;;;;;;;11.30;7.35;;;;;;;22.54;48.78;93510.56;5032325;28;20033;-75
2022/06/23 05:10:02;;;;;;;10.63;5.45;;;;;;;22.52;48.73;93510.19;5025429;28;20091;-74
2022/06/23 05:12:34;;;;;;;9.57;6.50;;;;;;;22.63;48.42;93514.38;5032000;28;20025;-74
2022/06/23 05:15:04;;;;;;;8.25;6.63;;;;;;;22.69;48.99;93529.06;5031704;28;20965;-75
2022/06/23 05:17:33;;;;;;;10.57;7.15;;;;;;;22.57;49.61;93528.75;5027958;28;20528;-74
2022/06/23 05:20:04;;;;;;;7.43;6.05;;;;;;;22.78;49.02;93531.31;5026594;28;20041;-74
2022/06/23 05:22:39;;;;;;;12.35;7.15;;;;;;;22.83;48.48;93549.13;5023733;28;20430;-74
2022/06/23 05:25:37;;;;;;;12.38;7.07;;;;;;;22.91;48.46;93543.31;5028981;28;20044;-75
2022/06/23 05:28:08;;;;;;;11.32;6.38;;;;;;;22.76;49.13;93533.69;5024007;28;20146;-74
2022/06/23 05:30:50;;;;;;;10.27;6.82;;;;;;;22.52;50.09;93518.34;5029385;28;20021;-74
2022/06/23 05:33:19;;;;;;;10.55;6.72;;;;;;;22.53;48.70;93520.66;5033038;28;20408;-74
2022/06/23 05:35:52;;;;;;;12.38;6.55;;;;;;;22.67;48.23;93533.34;5028974;28;20048;-74
2022/06/23 05:38:39;;;;;;;8.18;6.43;;;;;;;22.81;47.54;93563.09;5028320;28;20120;-75
2022/06/23 05:41:32;;;;;;;11.02;6.88;;;;;;;22.77;48.40;93546.06;5030646;28;20039;-75
2022/06/23 05:43:58;;;;;;;9.52;7.35;;;;;;;22.41;48.69;93518.38;5029877;28;20029;-74
2022/06/23 05:46:28;;;;;;;12.90;7.28;;;;;;;22.40;49.38;93516.06;5028063;28;20120;-73
2022/06/23 05:49:10;;;;;;;15.45;7.80;;;;;;;22.16;50.74;93545.53;5027900;28;20045;-74
2022/06/23 05:51:50;;;;;;;13.23;8.18;;;;;;;22.09;51.04;93555.63;5038011;28;20041;-74
2022/06/23 05:54:24;;;;;;;14.48;8.02;;;;;;;22.34;50.52;93767.66;5029265;28;20446;-74
2022/06/23 05:57:09;;;;;;;23.40;8.50;;;;;;;21.35;52.17;93897.34;5027358;28;20133;-74
2022/06/23 05:59:47;;;;;;;19.40;8.13;;;;;;;19.77;62.00;93903.69;5028231;28;20489;-74
2022/06/23 06:02:20;;;;;;;15.45;8.27;;;;;;;18.15;69.10;93838.25;5031446;28;20793;-74
2022/06/23 06:04:58;;;;;;;11.02;7.47;;;;;;;17.91;69.75;93834.00;5026714;28;20501;-74
2022/06/23 06:07:36;;;;;;;10.82;6.78;;;;;;;18.25;67.99;93861.09;5030848;28;20039;-74
2022/06/23 06:10:04;;;;;;;16.80;8.07;;;;;;;18.10;67.92;93798.19;5029938;28;20025;-74
2022/06/23 06:12:36;;;;;;;11.27;6.57;;;;;;;18.32;68.77;93820.84;5028761;28;20029;-72
2022/06/23 06:15:08;;;;;;;10.88;5.40;;;;;;;18.41;67.52;93794.44;5029724;28;20060;-74
2022/06/23 06:17:36;;;;;;;6.88;4.15;;;;;;;18.36;68.53;93765.13;5030644;28;20044;-74
2022/06/23 06:20:08;;;;;;;6.25;3.85;;;;;;;18.68;66.32;93763.66;5030910;28;20037;-74
2022/06/23 06:22:46;;;;;;;8.13;3.58;;;;;;;18.82;66.54;93752.34;5029418;28;20045;-74
2022/06/23 06:25:23;;;;;;;7.50;3.67;;;;;;;18.65;68.97;93726.69;5028664;28;20036;-74
2022/06/23 06:27:49;;;;;;;7.28;4.32;;;;;;;17.90;70.54;93665.63;5028387;28;21434;-75
2022/06/23 06:30:18;;;;;;;4.80;3.72;;;;;;;18.39;69.70;93684.41;5030801;28;20032;-74
2022/06/23 06:32:45;;;;;;;5.53;4.03;;;;;;;18.36;69.74;93708.59;5028893;28;20876;-74
2022/06/23 06:35:18;;;;;;;7.30;4.60;;;;;;;18.77;68.18;93694.13;5029437;28;20125;-74
2022/06/23 06:37:49;;;;;;;4.47;3.38;;;;;;;18.79;67.57;93683.78;5036019;28;20038;-74
2022/06/23 06:40:15;;;;;;;5.57;2.75;;;;;;;18.87;66.70;93671.94;5027845;28;20691;-74
2022/06/23 06:42:49;;;;;;;5.05;3.17;;;;;;;19.19;66.00;93693.06;5027192;28;20025;-75
2022/06/23 06:45:18;;;;;;;4.68;2.55;;;;;;;19.23;66.37;93685.78;5028097;28;20631;-75
2022/06/23 06:47:44;;;;;;;2.70;2.00;;;;;;;19.08;65.95;93651.75;5026795;28;20041;-73
2022/06/23 06:50:19;;;;;;;4.10;2.42;;;;;;;19.28;65.70;93661.19;5012811;28;20044;-74
2022/06/23 06:52:49;;;;;;;7.85;2.00;;;;;;;19.33;65.94;93652.75;5010325;28;20076;-74
2022/06/23 06:55:24;;;;;;;3.13;1.60;;;;;;;19.41;64.58;93642.81;5010411;28;20037;-74
2022/06/23 06:58:09;;;;;;;6.13;1.88;;;;;;;19.31;65.33;93622.72;5011565;28;20107;-74
2022/06/23 07:00:42;;;;;;;3.10;1.95;;;;;;;19.36;66.08;93641.22;5013531;28;20402;-74
2022/06/23 07:03:10;;;;;;;5.07;2.20;;;;;;;18.86;67.85;93662.31;5019927;28;20044;-75
2022/06/23 07:05:56;;;;;;;3.50;2.47;;;;;;;19.17;68.15;93663.78;5012443;28;20059;-75
2022/06/23 07:08:34;;;;;;;5.88;3.78;;;;;;;19.37;67.75;93663.56;5011855;28;20068;-74
2022/06/23 07:11:28;;;;;;;5.53;2.35;;;;;;;19.25;67.35;93661.94;5020013;28;20100;-74
2022/06/23 07:14:00;;;;;;;5.32;2.42;;;;;;;19.12;66.54;93663.31;5013671;28;20029;-75
2022/06/23 07:16:28;;;;;;;2.63;1.92;;;;;;;19.21;67.08;93669.97;5010720;28;20099;-74
2022/06/23 07:19:13;;;;;;;3.22;2.40;;;;;;;19.51;65.75;93667.19;5013250;28;20049;-74
2022/06/23 07:21:48;;;;;;;5.38;2.47;;;;;;;19.62;65.04;93664.59;5010057;28;20034;-75
2022/06/23 07:24:16;;;;;;;;;;;;;;;19.73;64.13;93685.13;5014709;28;20033;-74
2022/06/23 07:26:47;;;;;;;6.70;2.45;;;;;;;19.81;64.32;93693.25;5010993;28;19925;-74
2022/06/23 07:29:42;;;;;;;6.85;2.35;;;;;;;19.75;64.86;93701.69;5011872;28;20445;-75
2022/06/23 07:32:28;;;;;;;6.45;3.15;;;;;;;19.84;64.90;93708.72;4983040;28;20044;-73
2022/06/23 07:35:06;;;;;;;5.05;3.35;;;;;;;19.82;65.12;93694.81;5008107;28;20345;-74
2022/06/23 07:37:37;;;;;;;4.60;2.65;;;;;;;20.00;65.57;93706.50;5019920;28;20109;-74
2022/06/23 07:40:07;;;;;;;5.68;3.00;;;;;;;20.01;66.30;93718.84;5008973;28;20565;-74
2022/06/23 07:42:45;;;;;;;5.38;3.20;;;;;;;20.14;67.20;93730.94;5012244;28;20398;-74
2022/06/23 07:45:16;;;;;;;5.38;2.47;;;;;;;19.93;63.99;93712.66;5011185;28;20481;-75
2022/06/23 07:47:42;;;;;;;3.95;2.50;;;;;;;19.91;63.96;93741.91;5012687;28;20022;-75
2022/06/23 07:50:09;;;;;;;15.77;14.43;;;;;;;19.98;65.65;93733.13;5020513;28;20041;-74
2022/06/23 07:52:34;;;;;;;6.15;3.58;;;;;;;19.66;67.39;93727.44;5032204;28;20025;-74
2022/06/23 07:55:00;;;;;;;6.97;4.68;;;;;;;19.83;66.74;93726.03;5031200;28;20029;-75
2022/06/23 07:57:30;;;;;;;11.90;4.60;;;;;;;19.68;67.34;93714.34;5031078;28;20125;-74
2022/06/23 08:00:00;;;;;;;10.70;5.05;;;;;;;19.42;66.87;93741.44;5028157;28;20079;-74
2022/06/23 08:02:43;;;;;;;8.85;5.35;;;;;;;19.81;66.91;93739.91;5028587;28;20736;-74
2022/06/23 08:05:18;;;;;;;12.70;7.20;;;;;;;19.31;68.42;93725.91;5030525;28;20048;-74
2022/06/23 08:07:44;;;;;;;12.80;7.93;;;;;;;19.11;71.44;93737.28;5031661;28;20519;-74
2022/06/23 08:10:16;;;;;;;11.63;8.00;;;;;;;19.05;71.34;93717.19;5029887;28;20041;-74
2022/06/23 08:12:58;;;;;;;12.68;8.38;;;;;;;18.64;71.18;93748.59;5030927;28;20025;-73
2022/06/23 08:18:12;;;;;;;17.58;9.63;;;;;;;18.62;70.50;93737.41;5028933;28;20476;-74
2022/06/23 08:20:46;;;;;;;11.52;7.85;;;;;;;18.78;71.22;93714.56;5030834;28;20070;-74
2022/06/23 08:23:14;;;;;;;12.50;7.72;;;;;;;18.75;73.37;93685.66;5029478;28;20040;-74
2022/06/23 08:25:41;;;;;;;11.68;8.55;;;;;;;18.95;71.65;93705.13;5034377;28;20175;-75
2022/06/23 08:28:07;;;;;;;19.55;8.63;;;;;;;18.88;71.05;93697.72;5031956;28;20041;-73
2022/06/23 08:30:36;;;;;;;15.48;7.15;;;;;;;18.92;68.86;93687.00;5032350;28;20209;-74
2022/06/23 08:33:05;;;;;;;12.73;8.32;;;;;;;19.05;70.31;93706.41;5020791;28;20295;-74
2022/06/23 08:35:44;;;;;;;14.05;7.60;;;;;;;18.98;71.24;93698.22;5023552;28;20503;-74
2022/06/23 08:38:21;;;;;;;11.52;7.97;;;;;;;18.89;70.41;93707.38;5025899;28;20033;-74
2022/06/23 08:41:02;;;;;;;12.13;7.93;;;;;;;18.92;69.71;93713.19;5025072;28;20037;-74
2022/06/23 08:44:03;;;;;;;17.27;8.82;;;;;;;18.98;68.56;93712.47;5034291;28;20037;-74
2022/06/23 08:47:04;;;;;;;11.65;7.13;;;;;;;19.25;68.11;93705.06;4973784;28;20145;-74
2022/06/23 08:49:35;;;;;;;11.38;6.78;;;;;;;18.98;69.41;93704.38;5025254;28;20037;-74
2022/06/23 08:52:28;;;;;;;10.15;6.93;;;;;;;18.98;68.91;93698.22;5024653;28;20044;-73
2022/06/23 08:55:16;;;;;;;11.63;7.00;;;;;;;19.32;66.19;93702.44;5023042;28;20321;-74
2022/06/23 08:58:11;;;;;;;10.15;6.70;;;;;;;19.17;66.61;93698.81;5040630;28;20473;-74
2022/06/23 09:01:02;;;;;;;9.52;6.63;;;;;;;19.40;65.48;93679.78;5007005;28;20555;-74
2022/06/23 09:03:49;;;;;;;13.77;6.55;;;;;;;19.07;67.82;93679.84;5026094;28;20017;-74
2022/06/23 09:06:40;;;;;;;11.05;7.32;;;;;;;19.52;66.91;93701.13;5024304;28;20045;-75
2022/06/23 09:09:22;;;;;;;11.27;6.78;;;;;;;19.60;67.43;93702.72;5025002;28;20843;-74
2022/06/23 09:12:18;;;;;;;10.05;7.03;;;;;;;19.60;67.60;93700.00;5026852;28;20508;-74
2022/06/23 09:15:05;;;;;;;9.35;6.40;;;;;;;20.05;67.74;93703.47;5023710;28;20453;-74
2022/06/23 09:17:39;;;;;;;9.35;6.50;;;;;;;20.15;66.85;93700.06;5024331;28;20437;-74
2022/06/23 09:20:28;;;;;;;11.05;7.30;;;;;;;19.78;63.27;93688.63;5027161;28;20041;-74
2022/06/23 09:23:15;;;;;;;13.43;7.50;;;;;;;20.10;63.33;93685.00;5023306;28;20034;-75
2022/06/23 09:25:43;;;;;;;10.43;7.97;;;;;;;20.25;65.51;93677.78;5017717;28;20650;-74
2022/06/23 09:28:17;;;;;;;10.40;8.52;;;;;;;20.19;64.97;93676.56;5008427;28;20585;-74
2022/06/23 09:31:07;;;;;;;11.07;8.25;;;;;;;20.14;66.02;93669.56;5003725;28;20486;-74
2022/06/23 09:34:12;;;;;;;13.43;7.88;;;;;;;19.75;66.19;93672.00;5005492;28;20067;-74
2022/06/23 09:36:56;;;;;;;11.43;7.88;;;;;;;19.92;64.80;93667.13;5005200;28;20022;-74
2022/06/23 09:39:40;;;;;;;9.60;7.43;;;;;;;20.13;65.62;93661.88;5012509;28;20360;-74
2022/06/23 09:42:23;;;;;;;12.23;7.47;;;;;;;20.31;62.79;93660.06;5026886;28;20152;-74
2022/06/23 09:45:09;;;;;;;16.17;7.82;;;;;;;20.30;63.39;93649.63;5027625;28;20461;-74
2022/06/23 09:48:05;;;;;;;9.27;7.05;;;;;;;20.44;63.20;93642.38;5026915;28;20033;-74
2022/06/23 09:50:49;;;;;;;;;;;;;;;20.65;63.95;93659.84;5022630;28;20046;-74
2022/06/23 09:53:42;;;;;;;12.23;6.82;;;;;;;20.51;62.75;93645.13;5021918;28;20490;-74
2022/06/23 09:56:42;;;;;;;13.15;8.57;;;;;;;20.57;62.60;93651.72;5022994;28;20029;-74
2022/06/23 09:59:39;;;;;;;13.02;7.72;;;;;;;20.80;64.31;93650.63;5024455;28;20038;-74
2022/06/23 10:02:26;;;;;;;12.57;8.63;;;;;;;20.39;63.61;93631.16;5022632;28;20386;-74
2022/06/23 10:05:04;;;;;;;12.40;7.75;;;;;;;20.51;64.63;93655.94;5024074;28;20033;-74
2022/06/23 10:07:48;;;;;;;14.82;7.63;;;;;;;20.43;65.50;93659.75;5021954;28;20044;-74
2022/06/23 10:10:29;;;;;;;13.83;8.53;;;;;;;20.53;66.11;93653.59;5031574;28;20083;-74
2022/06/23 10:13:22;;;;;;;17.48;8.63;;;;;;;20.86;63.09;93654.53;5023875;28;20052;-74
2022/06/23 10:15:50;;;;;;;13.75;9.68;;;;;;;20.99;61.74;93650.34;5022183;28;20032;-74
2022/06/23 10:18:15;;;;;;;13.25;7.93;;;;;;;21.20;61.80;93647.69;5030740;28;20051;-74
2022/06/23 10:20:47;;;;;;;13.23;8.10;;;;;;;21.15;62.86;93655.41;5022786;28;20421;-74
2022/06/23 10:23:24;;;;;;;13.40;8.50;;;;;;;21.14;62.72;93649.22;5019696;28;20589;-74
2022/06/23 10:26:07;;;;;;;13.85;7.95;;;;;;;21.21;61.71;93635.72;5023806;28;20053;-74
2022/06/23 10:28:39;;;;;;;13.57;7.70;;;;;;;21.42;60.44;93645.75;5029638;28;20152;-74
2022/06/23 10:31:19;;;;;;;13.07;8.80;;;;;;;21.16;61.79;93609.06;5021329;28;20037;-74
2022/06/23 10:33:47;;;;;;;11.25;8.43;;;;;;;21.39;62.91;93628.38;5019677;28;20025;-74
2022/06/23 10:36:55;;;;;;;13.02;8.40;;;;;;;21.84;60.56;93609.84;5026543;28;20087;-74
2022/06/23 10:39:51;;;;;;;12.50;7.97;;;;;;;22.01;60.39;93614.44;5020331;28;20465;-74
2022/06/23 10:42:31;;;;;;;13.10;8.10;;;;;;;22.18;59.16;93610.94;5018719;28;20057;-75
2022/06/23 10:45:33;;;;;;;14.30;8.45;;;;;;;22.11;60.53;93602.03;5020592;28;20052;-75
2022/06/23 10:48:14;;;;;;;14.98;8.93;;;;;;;22.40;58.28;93602.75;5020877;28;20041;-75
2022/06/23 10:50:43;;;;;;;11.73;8.27;;;;;;;22.48;59.60;93610.50;5018943;28;20040;-75
2022/06/23 10:53:43;;;;;;;11.80;8.40;;;;;;;22.60;57.83;93606.56;5028680;28;20037;-74
2022/06/23 10:56:38;;;;;;;12.77;9.18;;;;;;;22.40;57.21;93594.63;5013379;28;20041;-75
2022/06/23 10:59:22;;;;;;;11.55;7.90;;;;;;;22.27;57.16;93605.91;4988932;28;20801;-74
2022/06/23 11:02:12;;;;;;;13.52;7.57;;;;;;;22.18;56.56;93604.75;5023655;28;20770;-73
2022/06/23 11:04:51;;;;;;;12.27;8.07;;;;;;;22.43;57.87;93604.69;5023168;28;20131;-75
2022/06/23 11:07:40;;;;;;;10.75;7.20;;;;;;;22.59;57.66;93594.94;5023563;28;20069;-76
2022/06/23 11:10:33;;;;;;;10.65;7.05;;;;;;;22.69;57.66;93585.97;5024028;28;20079;-73
2022/06/23 11:13:30;;;;;;;10.25;7.10;;;;;;;22.60;57.94;93587.59;5021980;28;20049;-75
2022/06/23 11:16:12;;;;;;;10.60;8.10;;;;;;;22.40;59.17;93589.22;5022807;28;20500;-74
2022/06/23 11:19:02;;;;;;;8.40;6.55;;;;;;;22.54;58.68;93589.16;5026130;28;20044;-74
2022/06/23 11:21:46;;;;;;;18.85;7.32;;;;;;;22.37;58.11;93592.72;5023423;28;20029;-74
2022/06/23 11:24:32;;;;;;;9.30;6.90;;;;;;;22.48;59.08;93588.03;5022763;28;20053;-74
2022/06/23 11:27:04;;;;;;;8.57;7.13;;;;;;;22.29;60.34;93584.59;4976575;28;20057;-74
2022/06/23 11:29:52;;;;;;;10.07;6.65;;;;;;;22.55;59.78;93604.25;5022942;28;20045;-74
2022/06/23 11:32:17;;;;;;;11.48;6.85;;;;;;;22.58;57.98;93603.47;5010121;28;20154;-75
2022/06/23 11:34:48;;;;;;;12.00;7.45;;;;;;;22.34;58.14;93615.19;5022487;28;20106;-75
2022/06/23 11:37:44;;;;;;;9.38;5.75;;;;;;;22.61;59.22;93619.72;5027640;28;20067;-75
2022/06/23 11:40:15;;;;;;;;;;;;;;;22.60;58.57;93617.38;5031137;28;20552;-74
2022/06/23 11:43:08;;;;;;;8.90;4.85;;;;;;;22.73;57.83;93623.94;5028887;28;19916;-74
2022/06/23 11:45:40;;;;;;;10.85;5.50;;;;;;;22.79;57.07;93625.06;5029047;28;20029;-74
2022/06/23 11:48:48;;;;;;;6.25;4.43;;;;;;;22.85;55.37;93628.13;5028704;28;20021;-74
2022/06/23 11:51:23;;;;;;;7.80;4.50;;;;;;;22.75;52.94;93616.16;5028875;28;20465;-74
2022/06/23 11:54:22;;;;;;;6.15;4.72;;;;;;;22.76;55.97;93631.28;5029213;28;20087;-74
2022/06/23 11:57:00;;;;;;;6.28;4.55;;;;;;;22.65;56.70;93630.53;5023290;28;20488;-74
2022/06/23 11:59:43;;;;;;;9.20;4.82;;;;;;;22.69;56.96;93625.88;5027254;28;20057;-74
2022/06/23 12:02:09;;;;;;;6.50;4.30;;;;;;;22.81;55.00;93624.66;5030839;28;20164;-74
2022/06/23 12:05:04;;;;;;;10.68;4.72;;;;;;;22.81;53.76;93622.72;5026722;28;20497;-74
2022/06/23 12:07:54;;;;;;;9.77;4.53;;;;;;;22.82;54.24;93616.16;5027023;28;20030;-74
2022/06/23 12:10:26;;;;;;;6.22;4.28;;;;;;;22.80;55.94;93607.63;5027449;28;20041;-74
2022/06/23 12:12:59;;;;;;;8.10;4.50;;;;;;;22.79;52.67;93592.50;5029512;28;20037;-74
2022/06/23 12:15:32;;;;;;;8.38;4.18;;;;;;;22.82;53.23;93608.00;5028511;28;20025;-74
2022/06/23 12:18:09;;;;;;;11.18;4.47;;;;;;;22.81;52.14;93595.63;5026939;28;20049;-74
2022/06/23 12:20:58;;;;;;;4.82;4.35;;;;;;;22.88;52.91;93590.16;5027546;28;20049;-74
2022/06/23 12:23:37;;;;;;;4.90;4.00;;;;;;;22.97;52.21;93600.59;5021368;28;20041;-74
2022/06/23 12:26:21;;;;;;;9.88;4.50;;;;;;;22.97;52.31;93598.66;5023540;28;20923;-74
2022/06/23 12:29:10;;;;;;;14.18;6.60;;;;;;;22.88;51.84;93586.72;5025968;28;20581;-74
2022/06/23 12:32:14;;;;;;;9.48;4.43;;;;;;;22.81;52.51;93590.19;5026724;28;20175;-74
2022/06/23 12:34:52;;;;;;;10.25;4.95;;;;;;;22.63;53.62;93579.44;5010090;28;20119;-75
2022/06/23 12:37:21;;;;;;;7.70;4.55;;;;;;;22.78;53.11;93615.38;5026745;28;20029;-75